sensor_id;sensor_type;location;lat;lon;timestamp;temperature;humidity
15111;DHT22;7656;51.954;7.998;2024-03-02T00:01:36;6.40;99.90
15111;DHT22;7656;51.954;7.998;2024-03-02T00:05:57;6.10;99.90
15111;DHT22;7656;51.954;7.998;2024-03-02T00:10:37;6.10;99.90
15111;DHT22;7656;51.954;7.998;2024-03-02T00:15:00;6.20;99.90
15111;DHT22;7656;51.954;7.998;2024-03-02T00:19:23;6.10;99.90
15111;DHT22;7656;51.954;7.998;2024-03-02T00:23:44;5.90;99.90
15111;DHT22;7656;51.954;7.998;2024-03-02T00:28:05;5.90;99.90
15111;DHT22;7656;51.954;7.998;2024-03-02T00:32:30;5.90;99.90
15111;DHT22;7656;51.954;7.998;2024-03-02T00:36:57;5.90;99.90
15111;DHT22;7656;51.954;7.998;2024-03-02T00:45:47;6.00;99.90
15111;DHT22;7656;51.954;7.998;2024-03-02T00:50:09;5.90;99.90
15111;DHT22;7656;51.954;7.998;2024-03-02T00:54:30;5.80;99.90
15111;DHT22;7656;51.954;7.998;2024-03-02T00:58:51;6.00;99.90
15111;DHT22;7656;51.954;7.998;2024-03-02T01:03:13;5.70;99.90
15111;DHT22;7656;51.954;7.998;2024-03-02T01:07:34;5.50;99.90
15111;DHT22;7656;51.954;7.998;2024-03-02T01:11:55;5.50;99.90
15111;DHT22;7656;51.954;7.998;2024-03-02T01:16:16;5.40;99.90
15111;DHT22;7656;51.954;7.998;2024-03-02T01:20:37;5.40;99.90
15111;DHT22;7656;51.954;7.998;2024-03-02T01:24:58;5.40;99.90
15111;DHT22;7656;51.954;7.998;2024-03-02T01:29:19;5.40;99.90
15111;DHT22;7656;51.954;7.998;2024-03-02T01:33:40;5.40;99.90
15111;DHT22;7656;51.954;7.998;2024-03-02T01:38:02;5.30;99.90
15111;DHT22;7656;51.954;7.998;2024-03-02T01:42:23;5.30;99.90
15111;DHT22;7656;51.954;7.998;2024-03-02T01:46:44;5.30;99.90
15111;DHT22;7656;51.954;7.998;2024-03-02T01:51:06;5.30;99.90
15111;DHT22;7656;51.954;7.998;2024-03-02T01:55:27;5.20;99.90
15111;DHT22;7656;51.954;7.998;2024-03-02T01:59:51;5.20;99.90
15111;DHT22;7656;51.954;7.998;2024-03-02T02:04:12;5.20;99.90
15111;DHT22;7656;51.954;7.998;2024-03-02T02:08:34;5.20;99.90
15111;DHT22;7656;51.954;7.998;2024-03-02T02:12:57;5.10;99.90
15111;DHT22;7656;51.954;7.998;2024-03-02T02:17:19;5.30;99.90
15111;DHT22;7656;51.954;7.998;2024-03-02T02:21:43;5.40;99.90
15111;DHT22;7656;51.954;7.998;2024-03-02T02:26:04;5.50;99.90
15111;DHT22;7656;51.954;7.998;2024-03-02T02:30:30;5.40;99.90
15111;DHT22;7656;51.954;7.998;2024-03-02T02:34:52;5.50;99.90
15111;DHT22;7656;51.954;7.998;2024-03-02T02:39:15;5.40;99.90
15111;DHT22;7656;51.954;7.998;2024-03-02T02:43:37;5.50;99.90
15111;DHT22;7656;51.954;7.998;2024-03-02T02:48:00;5.70;99.90
15111;DHT22;7656;51.954;7.998;2024-03-02T02:52:22;5.90;99.90
15111;DHT22;7656;51.954;7.998;2024-03-02T02:56:43;5.80;99.90
15111;DHT22;7656;51.954;7.998;2024-03-02T03:01:04;5.80;99.90
15111;DHT22;7656;51.954;7.998;2024-03-02T03:05:25;5.80;99.90
15111;DHT22;7656;51.954;7.998;2024-03-02T03:09:47;5.70;99.90
15111;DHT22;7656;51.954;7.998;2024-03-02T03:14:08;5.70;99.90
15111;DHT22;7656;51.954;7.998;2024-03-02T03:18:29;5.80;99.90
15111;DHT22;7656;51.954;7.998;2024-03-02T03:22:50;5.60;99.90
15111;DHT22;7656;51.954;7.998;2024-03-02T03:27:11;5.70;99.90
15111;DHT22;7656;51.954;7.998;2024-03-02T03:31:32;5.60;99.90
15111;DHT22;7656;51.954;7.998;2024-03-02T03:35:53;5.60;99.90
15111;DHT22;7656;51.954;7.998;2024-03-02T03:40:14;5.60;99.90
15111;DHT22;7656;51.954;7.998;2024-03-02T03:44:35;5.60;99.90
15111;DHT22;7656;51.954;7.998;2024-03-02T03:48:57;5.70;99.90
15111;DHT22;7656;51.954;7.998;2024-03-02T03:53:18;5.70;99.90
15111;DHT22;7656;51.954;7.998;2024-03-02T03:57:39;5.70;99.90
15111;DHT22;7656;51.954;7.998;2024-03-02T04:02:00;5.70;99.90
15111;DHT22;7656;51.954;7.998;2024-03-02T04:06:21;5.60;99.90
15111;DHT22;7656;51.954;7.998;2024-03-02T04:10:42;5.50;99.90
15111;DHT22;7656;51.954;7.998;2024-03-02T04:15:05;5.50;99.90
15111;DHT22;7656;51.954;7.998;2024-03-02T04:19:27;5.50;99.90
15111;DHT22;7656;51.954;7.998;2024-03-02T04:23:48;5.50;99.90
15111;DHT22;7656;51.954;7.998;2024-03-02T04:28:09;5.40;99.90
15111;DHT22;7656;51.954;7.998;2024-03-02T04:32:31;5.40;99.90
15111;DHT22;7656;51.954;7.998;2024-03-02T04:36:52;5.40;99.90
15111;DHT22;7656;51.954;7.998;2024-03-02T04:41:13;5.30;99.90
15111;DHT22;7656;51.954;7.998;2024-03-02T04:45:34;5.30;99.90
15111;DHT22;7656;51.954;7.998;2024-03-02T04:49:55;5.30;99.90
15111;DHT22;7656;51.954;7.998;2024-03-02T04:54:16;5.30;99.90
15111;DHT22;7656;51.954;7.998;2024-03-02T04:58:38;5.30;99.90
15111;DHT22;7656;51.954;7.998;2024-03-02T05:02:59;5.30;99.90
15111;DHT22;7656;51.954;7.998;2024-03-02T05:07:20;5.20;99.90
15111;DHT22;7656;51.954;7.998;2024-03-02T05:11:41;5.10;99.90
15111;DHT22;7656;51.954;7.998;2024-03-02T05:16:05;5.10;99.90
15111;DHT22;7656;51.954;7.998;2024-03-02T05:20:26;5.00;99.90
15111;DHT22;7656;51.954;7.998;2024-03-02T05:24:47;5.00;99.90
15111;DHT22;7656;51.954;7.998;2024-03-02T05:29:08;5.00;99.90
15111;DHT22;7656;51.954;7.998;2024-03-02T05:33:29;5.00;99.90
15111;DHT22;7656;51.954;7.998;2024-03-02T05:37:52;4.80;99.90
15111;DHT22;7656;51.954;7.998;2024-03-02T05:42:13;4.80;99.90
15111;DHT22;7656;51.954;7.998;2024-03-02T05:46:35;4.80;99.90
15111;DHT22;7656;51.954;7.998;2024-03-02T05:50:56;4.70;99.90
15111;DHT22;7656;51.954;7.998;2024-03-02T05:55:17;4.70;99.90
15111;DHT22;7656;51.954;7.998;2024-03-02T05:59:38;4.70;99.90
15111;DHT22;7656;51.954;7.998;2024-03-02T06:03:59;4.80;99.90
15111;DHT22;7656;51.954;7.998;2024-03-02T06:08:20;4.90;99.90
15111;DHT22;7656;51.954;7.998;2024-03-02T06:12:42;4.90;99.90
15111;DHT22;7656;51.954;7.998;2024-03-02T06:17:03;4.90;99.90
15111;DHT22;7656;51.954;7.998;2024-03-02T06:21:25;4.90;99.90
15111;DHT22;7656;51.954;7.998;2024-03-02T06:25:46;5.00;99.90
15111;DHT22;7656;51.954;7.998;2024-03-02T06:30:07;5.00;99.90
15111;DHT22;7656;51.954;7.998;2024-03-02T06:34:29;5.00;99.90
15111;DHT22;7656;51.954;7.998;2024-03-02T06:38:50;5.20;99.90
15111;DHT22;7656;51.954;7.998;2024-03-02T06:43:11;5.20;99.90
15111;DHT22;7656;51.954;7.998;2024-03-02T06:47:32;5.20;99.90
15111;DHT22;7656;51.954;7.998;2024-03-02T06:51:53;5.20;99.90
15111;DHT22;7656;51.954;7.998;2024-03-02T06:56:14;5.20;99.90
15111;DHT22;7656;51.954;7.998;2024-03-02T07:00:35;5.30;99.90
15111;DHT22;7656;51.954;7.998;2024-03-02T07:04:57;5.40;99.90
15111;DHT22;7656;51.954;7.998;2024-03-02T07:09:18;5.50;99.90
15111;DHT22;7656;51.954;7.998;2024-03-02T07:13:43;5.70;99.90
15111;DHT22;7656;51.954;7.998;2024-03-02T07:18:04;6.20;99.90
15111;DHT22;7656;51.954;7.998;2024-03-02T07:22:25;6.70;99.90
15111;DHT22;7656;51.954;7.998;2024-03-02T07:26:46;7.50;99.90
15111;DHT22;7656;51.954;7.998;2024-03-02T07:31:08;8.50;99.90
15111;DHT22;7656;51.954;7.998;2024-03-02T15:50:18;14.20;99.90
15111;DHT22;7656;51.954;7.998;2024-03-02T15:54:40;14.30;99.90
15111;DHT22;7656;51.954;7.998;2024-03-02T15:59:01;14.10;99.90
15111;DHT22;7656;51.954;7.998;2024-03-02T16:03:22;13.90;99.90
15111;DHT22;7656;51.954;7.998;2024-03-02T16:07:43;13.80;99.90
15111;DHT22;7656;51.954;7.998;2024-03-02T16:12:05;13.80;99.90
15111;DHT22;7656;51.954;7.998;2024-03-02T16:16:26;13.80;99.90
15111;DHT22;7656;51.954;7.998;2024-03-02T16:20:47;13.70;99.90
15111;DHT22;7656;51.954;7.998;2024-03-02T16:25:08;13.60;99.90
15111;DHT22;7656;51.954;7.998;2024-03-02T16:29:29;13.60;99.90
15111;DHT22;7656;51.954;7.998;2024-03-02T16:33:51;13.50;99.90
15111;DHT22;7656;51.954;7.998;2024-03-02T16:38:12;13.40;99.90
15111;DHT22;7656;51.954;7.998;2024-03-02T16:42:33;13.30;99.90
15111;DHT22;7656;51.954;7.998;2024-03-02T16:46:54;13.20;99.90
15111;DHT22;7656;51.954;7.998;2024-03-02T16:51:15;13.00;99.90
15111;DHT22;7656;51.954;7.998;2024-03-02T16:55:36;12.80;99.90
15111;DHT22;7656;51.954;7.998;2024-03-02T16:59:58;12.70;99.90
15111;DHT22;7656;51.954;7.998;2024-03-02T17:04:19;12.60;99.90
15111;DHT22;7656;51.954;7.998;2024-03-02T17:08:40;12.50;99.90
15111;DHT22;7656;51.954;7.998;2024-03-02T17:13:02;12.40;99.90
15111;DHT22;7656;51.954;7.998;2024-03-02T17:17:23;12.30;99.90
15111;DHT22;7656;51.954;7.998;2024-03-02T17:21:44;12.20;99.90
15111;DHT22;7656;51.954;7.998;2024-03-02T17:26:05;12.10;99.90
15111;DHT22;7656;51.954;7.998;2024-03-02T17:30:27;12.10;99.90
15111;DHT22;7656;51.954;7.998;2024-03-02T17:34:48;12.10;99.90
15111;DHT22;7656;51.954;7.998;2024-03-02T17:39:09;12.00;99.90
15111;DHT22;7656;51.954;7.998;2024-03-02T17:43:30;11.90;99.90
15111;DHT22;7656;51.954;7.998;2024-03-02T17:47:51;11.90;99.90
15111;DHT22;7656;51.954;7.998;2024-03-02T17:52:12;12.00;99.90
15111;DHT22;7656;51.954;7.998;2024-03-02T17:56:33;12.10;99.90
15111;DHT22;7656;51.954;7.998;2024-03-02T18:00:54;12.10;99.90
15111;DHT22;7656;51.954;7.998;2024-03-02T18:05:16;12.10;99.90
15111;DHT22;7656;51.954;7.998;2024-03-02T18:09:37;12.00;99.90
15111;DHT22;7656;51.954;7.998;2024-03-02T18:13:58;11.90;99.90
15111;DHT22;7656;51.954;7.998;2024-03-02T18:18:19;11.70;99.90
15111;DHT22;7656;51.954;7.998;2024-03-02T18:22:40;11.60;99.90
15111;DHT22;7656;51.954;7.998;2024-03-02T18:27:01;11.50;99.90
15111;DHT22;7656;51.954;7.998;2024-03-02T18:31:22;11.40;99.90
15111;DHT22;7656;51.954;7.998;2024-03-02T18:35:43;11.40;99.90
15111;DHT22;7656;51.954;7.998;2024-03-02T18:40:05;11.30;99.90
15111;DHT22;7656;51.954;7.998;2024-03-02T18:44:26;11.30;99.90
15111;DHT22;7656;51.954;7.998;2024-03-02T18:48:47;11.20;99.90
15111;DHT22;7656;51.954;7.998;2024-03-02T18:53:08;11.30;99.90
15111;DHT22;7656;51.954;7.998;2024-03-02T18:57:30;11.40;99.90
15111;DHT22;7656;51.954;7.998;2024-03-02T19:01:51;11.50;99.90
15111;DHT22;7656;51.954;7.998;2024-03-02T19:06:17;11.40;99.90
15111;DHT22;7656;51.954;7.998;2024-03-02T19:10:38;11.30;99.90
15111;DHT22;7656;51.954;7.998;2024-03-02T19:14:59;11.30;99.90
15111;DHT22;7656;51.954;7.998;2024-03-02T19:19:21;11.30;99.90
15111;DHT22;7656;51.954;7.998;2024-03-02T19:23:42;11.40;99.90
15111;DHT22;7656;51.954;7.998;2024-03-02T19:28:04;11.40;99.90
15111;DHT22;7656;51.954;7.998;2024-03-02T19:32:26;11.20;99.90
15111;DHT22;7656;51.954;7.998;2024-03-02T19:36:47;11.10;99.90
15111;DHT22;7656;51.954;7.998;2024-03-02T19:41:08;11.10;99.90
15111;DHT22;7656;51.954;7.998;2024-03-02T19:45:29;10.90;99.90
15111;DHT22;7656;51.954;7.998;2024-03-02T19:49:50;10.70;99.90
15111;DHT22;7656;51.954;7.998;2024-03-02T19:54:11;10.70;99.90
15111;DHT22;7656;51.954;7.998;2024-03-02T19:58:32;10.70;99.90
15111;DHT22;7656;51.954;7.998;2024-03-02T20:02:53;10.70;99.90
15111;DHT22;7656;51.954;7.998;2024-03-02T20:07:14;10.70;99.90
15111;DHT22;7656;51.954;7.998;2024-03-02T20:11:36;10.60;99.90
15111;DHT22;7656;51.954;7.998;2024-03-02T20:15:57;10.60;99.90
15111;DHT22;7656;51.954;7.998;2024-03-02T20:20:19;10.50;99.90
15111;DHT22;7656;51.954;7.998;2024-03-02T20:24:40;10.50;99.90
15111;DHT22;7656;51.954;7.998;2024-03-02T20:29:02;10.40;99.90
15111;DHT22;7656;51.954;7.998;2024-03-02T20:33:24;10.40;99.90
15111;DHT22;7656;51.954;7.998;2024-03-02T20:37:45;10.40;99.90
15111;DHT22;7656;51.954;7.998;2024-03-02T20:42:07;10.40;99.90
15111;DHT22;7656;51.954;7.998;2024-03-02T20:46:28;10.40;99.90
15111;DHT22;7656;51.954;7.998;2024-03-02T20:50:49;10.40;99.90
15111;DHT22;7656;51.954;7.998;2024-03-02T20:55:10;10.30;99.90
15111;DHT22;7656;51.954;7.998;2024-03-02T20:59:33;10.30;99.90
15111;DHT22;7656;51.954;7.998;2024-03-02T21:03:55;10.30;99.90
15111;DHT22;7656;51.954;7.998;2024-03-02T21:08:16;10.30;99.90
15111;DHT22;7656;51.954;7.998;2024-03-02T21:12:37;10.20;99.90
15111;DHT22;7656;51.954;7.998;2024-03-02T21:16:59;10.20;99.90
15111;DHT22;7656;51.954;7.998;2024-03-02T21:21:20;10.10;99.90
15111;DHT22;7656;51.954;7.998;2024-03-02T21:25:42;10.00;99.90
15111;DHT22;7656;51.954;7.998;2024-03-02T21:30:07;10.00;99.90
15111;DHT22;7656;51.954;7.998;2024-03-02T21:34:28;9.90;99.90
15111;DHT22;7656;51.954;7.998;2024-03-02T21:38:50;10.00;99.90
15111;DHT22;7656;51.954;7.998;2024-03-02T21:43:11;9.90;99.90
15111;DHT22;7656;51.954;7.998;2024-03-02T21:47:32;9.90;99.90
15111;DHT22;7656;51.954;7.998;2024-03-02T21:51:53;9.90;99.90
15111;DHT22;7656;51.954;7.998;2024-03-02T21:56:14;9.90;99.90
15111;DHT22;7656;51.954;7.998;2024-03-02T22:00:36;9.80;99.90
15111;DHT22;7656;51.954;7.998;2024-03-02T22:04:58;9.80;99.90
15111;DHT22;7656;51.954;7.998;2024-03-02T22:09:19;9.80;99.90
15111;DHT22;7656;51.954;7.998;2024-03-02T22:13:40;9.70;99.90
15111;DHT22;7656;51.954;7.998;2024-03-02T22:18:01;9.70;99.90
15111;DHT22;7656;51.954;7.998;2024-03-02T22:22:23;9.60;99.90
15111;DHT22;7656;51.954;7.998;2024-03-02T22:26:45;9.60;99.90
15111;DHT22;7656;51.954;7.998;2024-03-02T22:31:06;9.50;99.90
15111;DHT22;7656;51.954;7.998;2024-03-02T22:35:27;9.60;99.90
15111;DHT22;7656;51.954;7.998;2024-03-02T22:39:48;9.60;99.90
15111;DHT22;7656;51.954;7.998;2024-03-02T22:44:09;9.60;99.90
15111;DHT22;7656;51.954;7.998;2024-03-02T22:48:30;9.70;99.90
15111;DHT22;7656;51.954;7.998;2024-03-02T22:52:51;9.70;99.90
15111;DHT22;7656;51.954;7.998;2024-03-02T22:57:12;9.60;99.90
15111;DHT22;7656;51.954;7.998;2024-03-02T23:01:37;9.60;99.90
15111;DHT22;7656;51.954;7.998;2024-03-02T23:05:59;9.70;99.90
15111;DHT22;7656;51.954;7.998;2024-03-02T23:10:20;9.60;99.90
15111;DHT22;7656;51.954;7.998;2024-03-02T23:14:41;9.70;99.90
15111;DHT22;7656;51.954;7.998;2024-03-02T23:19:02;9.50;99.90
15111;DHT22;7656;51.954;7.998;2024-03-02T23:23:23;9.50;99.90
15111;DHT22;7656;51.954;7.998;2024-03-02T23:27:44;9.50;99.90
15111;DHT22;7656;51.954;7.998;2024-03-02T23:32:06;9.40;99.90
15111;DHT22;7656;51.954;7.998;2024-03-02T23:36:28;9.50;99.90
15111;DHT22;7656;51.954;7.998;2024-03-02T23:40:49;9.60;99.90
15111;DHT22;7656;51.954;7.998;2024-03-02T23:45:27;9.70;99.90
15111;DHT22;7656;51.954;7.998;2024-03-02T23:49:49;9.70;99.90
15111;DHT22;7656;51.954;7.998;2024-03-02T23:54:10;9.70;99.90
15111;DHT22;7656;51.954;7.998;2024-03-02T23:58:31;9.80;99.90
